sensor_id;sensor_type;location;lat;lon;timestamp;temperature;humidity
22161;DHT22;49035;48.812;11.762;2023-10-08T00:06:02;14.20;99.90
22161;DHT22;49035;48.812;11.762;2023-10-08T00:08:34;14.20;99.90
22161;DHT22;49035;48.812;11.762;2023-10-08T00:11:00;14.30;99.90
22161;DHT22;49035;48.812;11.762;2023-10-08T00:13:33;14.30;99.90
22161;DHT22;49035;48.812;11.762;2023-10-08T00:16:17;14.30;99.90
22161;DHT22;49035;48.812;11.762;2023-10-08T00:22:32;14.30;99.90
22161;DHT22;49035;48.812;11.762;2023-10-08T00:25:52;14.30;99.90
22161;DHT22;49035;48.812;11.762;2023-10-08T00:28:39;14.40;99.90
22161;DHT22;49035;48.812;11.762;2023-10-08T00:31:16;14.30;99.90
22161;DHT22;49035;48.812;11.762;2023-10-08T00:34:16;14.40;99.90
22161;DHT22;49035;48.812;11.762;2023-10-08T00:49:49;14.30;99.90
22161;DHT22;49035;48.812;11.762;2023-10-08T00:52:49;14.30;99.90
22161;DHT22;49035;48.812;11.762;2023-10-08T00:55:39;14.30;99.90
22161;DHT22;49035;48.812;11.762;2023-10-08T00:58:20;14.30;99.90
22161;DHT22;49035;48.812;11.762;2023-10-08T01:01:22;14.30;99.90
22161;DHT22;49035;48.812;11.762;2023-10-08T01:04:18;14.40;99.90
22161;DHT22;49035;48.812;11.762;2023-10-08T01:14:19;14.50;99.90
22161;DHT22;49035;48.812;11.762;2023-10-08T01:16:52;14.50;99.90
22161;DHT22;49035;48.812;11.762;2023-10-08T01:19:26;14.50;99.90
22161;DHT22;49035;48.812;11.762;2023-10-08T01:22:08;14.40;99.90
22161;DHT22;49035;48.812;11.762;2023-10-08T01:25:17;14.40;99.90
22161;DHT22;49035;48.812;11.762;2023-10-08T01:28:47;14.30;99.90
22161;DHT22;49035;48.812;11.762;2023-10-08T01:31:25;14.20;99.90
22161;DHT22;49035;48.812;11.762;2023-10-08T01:36:55;14.10;99.90
22161;DHT22;49035;48.812;11.762;2023-10-08T01:39:24;14.00;99.90
22161;DHT22;49035;48.812;11.762;2023-10-08T01:42:09;13.90;99.90
22161;DHT22;49035;48.812;11.762;2023-10-08T01:44:52;13.90;99.90
22161;DHT22;49035;48.812;11.762;2023-10-08T01:50:37;13.90;99.90
22161;DHT22;49035;48.812;11.762;2023-10-08T01:56:24;14.00;99.90
22161;DHT22;49035;48.812;11.762;2023-10-08T01:59:03;14.00;99.90
22161;DHT22;49035;48.812;11.762;2023-10-08T02:01:44;14.00;99.90
22161;DHT22;49035;48.812;11.762;2023-10-08T02:04:39;14.10;99.90
22161;DHT22;49035;48.812;11.762;2023-10-08T02:07:09;14.00;99.90
22161;DHT22;49035;48.812;11.762;2023-10-08T02:09:58;14.10;99.90
22161;DHT22;49035;48.812;11.762;2023-10-08T02:12:48;14.00;99.90
22161;DHT22;49035;48.812;11.762;2023-10-08T02:15:23;14.10;99.90
22161;DHT22;49035;48.812;11.762;2023-10-08T02:18:23;14.10;99.90
22161;DHT22;49035;48.812;11.762;2023-10-08T02:20:55;14.10;99.90
22161;DHT22;49035;48.812;11.762;2023-10-08T02:24:02;14.10;99.90
22161;DHT22;49035;48.812;11.762;2023-10-08T02:26:53;14.00;99.90
22161;DHT22;49035;48.812;11.762;2023-10-08T02:29:30;14.00;99.90
22161;DHT22;49035;48.812;11.762;2023-10-08T02:32:04;13.90;99.90
22161;DHT22;49035;48.812;11.762;2023-10-08T02:34:30;14.00;99.90
22161;DHT22;49035;48.812;11.762;2023-10-08T02:37:10;14.00;99.90
22161;DHT22;49035;48.812;11.762;2023-10-08T02:40:06;13.90;99.90
22161;DHT22;49035;48.812;11.762;2023-10-08T02:43:08;13.90;99.90
22161;DHT22;49035;48.812;11.762;2023-10-08T02:45:51;14.00;99.90
22161;DHT22;49035;48.812;11.762;2023-10-08T02:48:23;14.00;99.90
22161;DHT22;49035;48.812;11.762;2023-10-08T02:50:51;14.00;99.90
22161;DHT22;49035;48.812;11.762;2023-10-08T02:53:45;14.00;99.90
22161;DHT22;49035;48.812;11.762;2023-10-08T02:56:19;14.00;99.90
22161;DHT22;49035;48.812;11.762;2023-10-08T02:58:52;14.10;99.90
22161;DHT22;49035;48.812;11.762;2023-10-08T03:01:28;14.00;99.90
22161;DHT22;49035;48.812;11.762;2023-10-08T03:04:18;14.10;99.90
22161;DHT22;49035;48.812;11.762;2023-10-08T03:10:28;14.10;99.90
22161;DHT22;49035;48.812;11.762;2023-10-08T03:13:19;14.00;99.90
22161;DHT22;49035;48.812;11.762;2023-10-08T03:15:55;13.90;99.90
22161;DHT22;49035;48.812;11.762;2023-10-08T03:21:34;13.80;99.90
22161;DHT22;49035;48.812;11.762;2023-10-08T03:40:49;13.60;99.90
22161;DHT22;49035;48.812;11.762;2023-10-08T03:43:27;13.50;99.90
22161;DHT22;49035;48.812;11.762;2023-10-08T03:46:21;13.40;99.90
22161;DHT22;49035;48.812;11.762;2023-10-08T03:48:51;13.20;99.90
22161;DHT22;49035;48.812;11.762;2023-10-08T03:51:39;13.10;99.90
22161;DHT22;49035;48.812;11.762;2023-10-08T03:54:23;13.10;99.90
22161;DHT22;49035;48.812;11.762;2023-10-08T03:57:06;13.00;99.90
22161;DHT22;49035;48.812;11.762;2023-10-08T03:59:45;13.00;99.90
22161;DHT22;49035;48.812;11.762;2023-10-08T04:02:45;13.00;99.90
22161;DHT22;49035;48.812;11.762;2023-10-08T04:11:47;13.10;99.90
22161;DHT22;49035;48.812;11.762;2023-10-08T04:14:26;13.00;99.90
22161;DHT22;49035;48.812;11.762;2023-10-08T04:26:25;13.00;99.90
22161;DHT22;49035;48.812;11.762;2023-10-08T04:38:59;13.20;99.90
22161;DHT22;49035;48.812;11.762;2023-10-08T04:53:45;13.20;99.90
22161;DHT22;49035;48.812;11.762;2023-10-08T04:56:52;13.30;99.90
22161;DHT22;49035;48.812;11.762;2023-10-08T05:00:10;13.20;99.90
22161;DHT22;49035;48.812;11.762;2023-10-08T05:03:07;13.20;99.90
22161;DHT22;49035;48.812;11.762;2023-10-08T05:06:04;13.20;99.90
22161;DHT22;49035;48.812;11.762;2023-10-08T05:08:47;13.20;99.90
22161;DHT22;49035;48.812;11.762;2023-10-08T05:11:48;13.20;99.90
22161;DHT22;49035;48.812;11.762;2023-10-08T05:18:13;13.30;99.90
22161;DHT22;49035;48.812;11.762;2023-10-08T05:21:08;13.20;99.90
22161;DHT22;49035;48.812;11.762;2023-10-08T05:24:35;13.20;99.90
22161;DHT22;49035;48.812;11.762;2023-10-08T05:30:37;13.30;99.90
22161;DHT22;49035;48.812;11.762;2023-10-08T05:40:41;13.30;99.90
22161;DHT22;49035;48.812;11.762;2023-10-08T05:44:10;13.30;99.90
22161;DHT22;49035;48.812;11.762;2023-10-08T05:50:40;13.20;99.90
22161;DHT22;49035;48.812;11.762;2023-10-08T06:06:31;13.30;99.90
22161;DHT22;49035;48.812;11.762;2023-10-08T06:13:42;13.20;99.90
22161;DHT22;49035;48.812;11.762;2023-10-08T06:26:21;13.40;99.90
22161;DHT22;49035;48.812;11.762;2023-10-08T06:29:02;13.50;99.90
22161;DHT22;49035;48.812;11.762;2023-10-08T06:31:59;13.60;99.90
22161;DHT22;49035;48.812;11.762;2023-10-08T06:35:34;13.80;99.90
22161;DHT22;49035;48.812;11.762;2023-10-08T07:31:53;16.00;99.90
22161;DHT22;49035;48.812;11.762;2023-10-08T07:34:27;16.20;99.90
22161;DHT22;49035;48.812;11.762;2023-10-08T07:36:57;16.20;99.90
22161;DHT22;49035;48.812;11.762;2023-10-08T07:39:27;16.30;99.90
22161;DHT22;49035;48.812;11.762;2023-10-08T07:41:56;16.30;99.90
22161;DHT22;49035;48.812;11.762;2023-10-08T07:44:26;16.30;99.90
22161;DHT22;49035;48.812;11.762;2023-10-08T07:46:55;16.20;99.90
22161;DHT22;49035;48.812;11.762;2023-10-08T07:49:23;16.10;99.90
22161;DHT22;49035;48.812;11.762;2023-10-08T07:51:49;16.10;99.90
22161;DHT22;49035;48.812;11.762;2023-10-08T07:54:18;16.30;99.90
22161;DHT22;49035;48.812;11.762;2023-10-08T07:56:45;16.40;99.90
22161;DHT22;49035;48.812;11.762;2023-10-08T07:59:12;16.60;99.90
22161;DHT22;49035;48.812;11.762;2023-10-08T08:01:40;16.80;99.90
22161;DHT22;49035;48.812;11.762;2023-10-08T08:04:09;17.10;99.90
22161;DHT22;49035;48.812;11.762;2023-10-08T08:06:37;17.40;99.90
22161;DHT22;49035;48.812;11.762;2023-10-08T08:09:03;17.50;99.90
22161;DHT22;49035;48.812;11.762;2023-10-08T08:11:43;17.70;99.90
22161;DHT22;49035;48.812;11.762;2023-10-08T08:14:11;17.80;99.90
22161;DHT22;49035;48.812;11.762;2023-10-08T08:16:37;17.80;99.90
22161;DHT22;49035;48.812;11.762;2023-10-08T08:19:03;18.00;99.90
22161;DHT22;49035;48.812;11.762;2023-10-08T08:21:29;17.90;99.90
22161;DHT22;49035;48.812;11.762;2023-10-08T08:23:56;17.90;99.90
22161;DHT22;49035;48.812;11.762;2023-10-08T08:26:30;17.90;99.90
22161;DHT22;49035;48.812;11.762;2023-10-08T08:29:05;17.80;99.90
22161;DHT22;49035;48.812;11.762;2023-10-08T08:31:34;17.60;99.90
22161;DHT22;49035;48.812;11.762;2023-10-08T08:34:02;17.50;99.90
22161;DHT22;49035;48.812;11.762;2023-10-08T08:36:30;17.50;99.90
22161;DHT22;49035;48.812;11.762;2023-10-08T08:38:57;17.40;99.90
22161;DHT22;49035;48.812;11.762;2023-10-08T08:41:23;17.40;99.90
22161;DHT22;49035;48.812;11.762;2023-10-08T08:43:54;17.30;99.90
22161;DHT22;49035;48.812;11.762;2023-10-08T08:46:30;17.10;99.90
22161;DHT22;49035;48.812;11.762;2023-10-08T08:49:04;17.20;99.90
22161;DHT22;49035;48.812;11.762;2023-10-08T08:51:30;17.20;99.90
22161;DHT22;49035;48.812;11.762;2023-10-08T08:53:56;17.30;99.90
22161;DHT22;49035;48.812;11.762;2023-10-08T08:56:25;17.50;99.90
22161;DHT22;49035;48.812;11.762;2023-10-08T08:58:51;17.80;99.90
22161;DHT22;49035;48.812;11.762;2023-10-08T09:01:19;18.10;99.90
22161;DHT22;49035;48.812;11.762;2023-10-08T09:03:45;18.40;99.90
22161;DHT22;49035;48.812;11.762;2023-10-08T09:06:13;18.70;99.90
22161;DHT22;49035;48.812;11.762;2023-10-08T09:08:39;19.10;99.90
22161;DHT22;49035;48.812;11.762;2023-10-08T09:11:16;19.50;99.90
22161;DHT22;49035;48.812;11.762;2023-10-08T09:13:42;19.90;99.90
22161;DHT22;49035;48.812;11.762;2023-10-08T09:16:12;20.30;99.90
22161;DHT22;49035;48.812;11.762;2023-10-08T09:18:38;20.50;99.90
22161;DHT22;49035;48.812;11.762;2023-10-08T09:21:19;20.50;98.70
22161;DHT22;49035;48.812;11.762;2023-10-08T09:23:50;20.30;99.90
22161;DHT22;49035;48.812;11.762;2023-10-08T09:26:17;20.10;99.90
22161;DHT22;49035;48.812;11.762;2023-10-08T09:28:47;19.90;99.90
22161;DHT22;49035;48.812;11.762;2023-10-08T09:31:14;19.80;99.90
22161;DHT22;49035;48.812;11.762;2023-10-08T09:33:53;19.50;99.90
22161;DHT22;49035;48.812;11.762;2023-10-08T09:36:22;19.30;99.90
22161;DHT22;49035;48.812;11.762;2023-10-08T09:38:59;19.20;99.90
22161;DHT22;49035;48.812;11.762;2023-10-08T09:41:28;19.00;99.90
22161;DHT22;49035;48.812;11.762;2023-10-08T09:43:57;18.90;99.90
22161;DHT22;49035;48.812;11.762;2023-10-08T09:46:30;18.70;99.90
22161;DHT22;49035;48.812;11.762;2023-10-08T09:49:00;18.60;99.90
22161;DHT22;49035;48.812;11.762;2023-10-08T09:51:28;18.40;99.90
22161;DHT22;49035;48.812;11.762;2023-10-08T09:54:20;18.40;99.90
22161;DHT22;49035;48.812;11.762;2023-10-08T09:56:51;18.40;99.90
22161;DHT22;49035;48.812;11.762;2023-10-08T09:59:18;18.30;99.90
22161;DHT22;49035;48.812;11.762;2023-10-08T10:01:46;18.30;99.90
22161;DHT22;49035;48.812;11.762;2023-10-08T10:04:21;18.40;99.90
22161;DHT22;49035;48.812;11.762;2023-10-08T10:06:52;18.40;99.90
22161;DHT22;49035;48.812;11.762;2023-10-08T10:09:23;18.50;99.90
22161;DHT22;49035;48.812;11.762;2023-10-08T10:11:50;18.50;99.90
22161;DHT22;49035;48.812;11.762;2023-10-08T10:14:26;18.70;99.90
22161;DHT22;49035;48.812;11.762;2023-10-08T10:17:10;18.70;99.90
22161;DHT22;49035;48.812;11.762;2023-10-08T10:19:38;18.80;99.90
22161;DHT22;49035;48.812;11.762;2023-10-08T10:22:04;18.80;99.90
22161;DHT22;49035;48.812;11.762;2023-10-08T10:24:36;18.80;99.90
22161;DHT22;49035;48.812;11.762;2023-10-08T10:27:15;18.80;99.90
22161;DHT22;49035;48.812;11.762;2023-10-08T10:29:43;18.90;99.90
22161;DHT22;49035;48.812;11.762;2023-10-08T10:32:12;19.00;99.90
22161;DHT22;49035;48.812;11.762;2023-10-08T10:34:44;18.80;99.90
22161;DHT22;49035;48.812;11.762;2023-10-08T10:37:13;18.80;99.90
22161;DHT22;49035;48.812;11.762;2023-10-08T10:39:52;18.80;99.90
22161;DHT22;49035;48.812;11.762;2023-10-08T10:42:20;18.70;99.90
22161;DHT22;49035;48.812;11.762;2023-10-08T10:44:54;18.70;99.90
22161;DHT22;49035;48.812;11.762;2023-10-08T10:47:24;18.80;99.90
22161;DHT22;49035;48.812;11.762;2023-10-08T10:49:54;19.00;99.90
22161;DHT22;49035;48.812;11.762;2023-10-08T10:52:27;19.30;99.90
22161;DHT22;49035;48.812;11.762;2023-10-08T10:55:14;19.60;99.90
22161;DHT22;49035;48.812;11.762;2023-10-08T10:57:46;19.60;99.90
22161;DHT22;49035;48.812;11.762;2023-10-08T11:00:20;19.60;99.90
22161;DHT22;49035;48.812;11.762;2023-10-08T11:02:58;19.60;99.90
22161;DHT22;49035;48.812;11.762;2023-10-08T11:05:57;19.90;99.90
22161;DHT22;49035;48.812;11.762;2023-10-08T11:08:31;20.20;99.90
22161;DHT22;49035;48.812;11.762;2023-10-08T11:11:01;20.40;99.90
22161;DHT22;49035;48.812;11.762;2023-10-08T11:13:33;20.50;99.90
22161;DHT22;49035;48.812;11.762;2023-10-08T11:16:08;20.60;99.90
22161;DHT22;49035;48.812;11.762;2023-10-08T11:18:35;20.70;99.90
22161;DHT22;49035;48.812;11.762;2023-10-08T11:21:08;20.90;99.90
22161;DHT22;49035;48.812;11.762;2023-10-08T11:23:50;21.00;99.90
22161;DHT22;49035;48.812;11.762;2023-10-08T11:26:25;21.10;99.90
22161;DHT22;49035;48.812;11.762;2023-10-08T11:29:03;21.30;99.50
22161;DHT22;49035;48.812;11.762;2023-10-08T11:31:37;21.50;98.70
22161;DHT22;49035;48.812;11.762;2023-10-08T11:34:04;21.80;99.10
22161;DHT22;49035;48.812;11.762;2023-10-08T11:36:38;22.00;98.60
22161;DHT22;49035;48.812;11.762;2023-10-08T11:39:19;22.00;96.30
22161;DHT22;49035;48.812;11.762;2023-10-08T11:42:06;21.90;95.90
22161;DHT22;49035;48.812;11.762;2023-10-08T11:44:51;21.80;96.40
22161;DHT22;49035;48.812;11.762;2023-10-08T11:47:20;21.60;95.90
22161;DHT22;49035;48.812;11.762;2023-10-08T11:49:47;21.30;94.50
22161;DHT22;49035;48.812;11.762;2023-10-08T11:52:15;21.10;97.30
22161;DHT22;49035;48.812;11.762;2023-10-08T11:54:45;21.30;97.00
22161;DHT22;49035;48.812;11.762;2023-10-08T11:57:13;21.40;97.20
22161;DHT22;49035;48.812;11.762;2023-10-08T11:59:39;21.60;97.30
22161;DHT22;49035;48.812;11.762;2023-10-08T12:02:06;21.70;94.90
22161;DHT22;49035;48.812;11.762;2023-10-08T12:04:32;21.60;95.70
22161;DHT22;49035;48.812;11.762;2023-10-08T12:06:58;21.50;94.60
22161;DHT22;49035;48.812;11.762;2023-10-08T12:09:28;21.40;94.50
22161;DHT22;49035;48.812;11.762;2023-10-08T12:11:54;21.50;96.30
22161;DHT22;49035;48.812;11.762;2023-10-08T12:14:21;22.00;94.70
22161;DHT22;49035;48.812;11.762;2023-10-08T12:16:52;22.40;95.70
22161;DHT22;49035;48.812;11.762;2023-10-08T12:19:17;22.80;95.10
22161;DHT22;49035;48.812;11.762;2023-10-08T12:21:44;23.30;92.90
22161;DHT22;49035;48.812;11.762;2023-10-08T12:24:13;23.80;92.10
22161;DHT22;49035;48.812;11.762;2023-10-08T12:26:39;24.10;90.80
22161;DHT22;49035;48.812;11.762;2023-10-08T12:29:14;24.30;89.50
22161;DHT22;49035;48.812;11.762;2023-10-08T12:31:40;24.10;89.50
22161;DHT22;49035;48.812;11.762;2023-10-08T12:34:06;23.70;89.20
22161;DHT22;49035;48.812;11.762;2023-10-08T12:36:32;23.30;88.10
22161;DHT22;49035;48.812;11.762;2023-10-08T12:39:02;22.50;92.30
22161;DHT22;49035;48.812;11.762;2023-10-08T12:41:40;22.40;92.10
22161;DHT22;49035;48.812;11.762;2023-10-08T12:44:06;22.10;92.90
22161;DHT22;49035;48.812;11.762;2023-10-08T12:46:33;21.80;93.40
22161;DHT22;49035;48.812;11.762;2023-10-08T12:49:00;21.40;93.00
22161;DHT22;49035;48.812;11.762;2023-10-08T12:51:27;20.90;94.30
22161;DHT22;49035;48.812;11.762;2023-10-08T12:53:57;20.70;94.10
22161;DHT22;49035;48.812;11.762;2023-10-08T12:56:35;20.50;94.70
22161;DHT22;49035;48.812;11.762;2023-10-08T12:59:02;20.40;95.40
22161;DHT22;49035;48.812;11.762;2023-10-08T13:01:37;20.30;95.80
22161;DHT22;49035;48.812;11.762;2023-10-08T13:04:06;20.20;95.30
22161;DHT22;49035;48.812;11.762;2023-10-08T13:06:41;20.00;96.40
22161;DHT22;49035;48.812;11.762;2023-10-08T13:09:10;19.80;95.90
22161;DHT22;49035;48.812;11.762;2023-10-08T13:11:38;19.70;96.90
22161;DHT22;49035;48.812;11.762;2023-10-08T13:14:04;19.70;96.80
22161;DHT22;49035;48.812;11.762;2023-10-08T13:16:30;19.70;97.30
22161;DHT22;49035;48.812;11.762;2023-10-08T13:19:03;19.80;97.10
22161;DHT22;49035;48.812;11.762;2023-10-08T13:21:28;19.80;97.10
22161;DHT22;49035;48.812;11.762;2023-10-08T13:23:55;19.80;96.70
22161;DHT22;49035;48.812;11.762;2023-10-08T13:26:25;19.70;97.30
22161;DHT22;49035;48.812;11.762;2023-10-08T13:28:59;19.70;97.30
22161;DHT22;49035;48.812;11.762;2023-10-08T13:31:25;19.80;97.50
22161;DHT22;49035;48.812;11.762;2023-10-08T13:33:51;19.70;96.90
22161;DHT22;49035;48.812;11.762;2023-10-08T13:36:18;19.70;97.60
22161;DHT22;49035;48.812;11.762;2023-10-08T13:38:44;19.60;97.40
22161;DHT22;49035;48.812;11.762;2023-10-08T13:41:13;19.60;97.50
22161;DHT22;49035;48.812;11.762;2023-10-08T13:43:50;19.60;98.30
22161;DHT22;49035;48.812;11.762;2023-10-08T13:46:24;19.60;97.80
22161;DHT22;49035;48.812;11.762;2023-10-08T13:48:50;19.60;97.50
22161;DHT22;49035;48.812;11.762;2023-10-08T13:51:18;19.60;97.60
22161;DHT22;49035;48.812;11.762;2023-10-08T13:53:57;19.70;97.60
22161;DHT22;49035;48.812;11.762;2023-10-08T13:56:28;19.80;97.70
22161;DHT22;49035;48.812;11.762;2023-10-08T13:58:57;19.80;97.50
22161;DHT22;49035;48.812;11.762;2023-10-08T14:01:40;19.80;97.50
22161;DHT22;49035;48.812;11.762;2023-10-08T14:04:08;19.80;97.50
22161;DHT22;49035;48.812;11.762;2023-10-08T14:06:38;19.90;97.20
22161;DHT22;49035;48.812;11.762;2023-10-08T14:09:08;20.00;97.90
22161;DHT22;49035;48.812;11.762;2023-10-08T14:11:46;20.00;96.80
22161;DHT22;49035;48.812;11.762;2023-10-08T14:14:12;20.00;96.80
22161;DHT22;49035;48.812;11.762;2023-10-08T14:16:41;20.00;97.10
22161;DHT22;49035;48.812;11.762;2023-10-08T14:19:13;20.10;96.70
22161;DHT22;49035;48.812;11.762;2023-10-08T14:21:41;20.20;96.80
22161;DHT22;49035;48.812;11.762;2023-10-08T14:24:25;20.30;97.40
22161;DHT22;49035;48.812;11.762;2023-10-08T14:26:53;20.30;96.90
22161;DHT22;49035;48.812;11.762;2023-10-08T14:29:22;20.30;96.40
22161;DHT22;49035;48.812;11.762;2023-10-08T14:31:50;20.20;97.20
22161;DHT22;49035;48.812;11.762;2023-10-08T14:34:16;20.10;96.90
22161;DHT22;49035;48.812;11.762;2023-10-08T14:36:45;20.00;96.80
22161;DHT22;49035;48.812;11.762;2023-10-08T14:39:31;20.00;96.90
22161;DHT22;49035;48.812;11.762;2023-10-08T14:42:15;19.90;97.60
22161;DHT22;49035;48.812;11.762;2023-10-08T14:45:00;19.80;97.90
22161;DHT22;49035;48.812;11.762;2023-10-08T14:47:26;19.70;97.80
22161;DHT22;49035;48.812;11.762;2023-10-08T14:49:52;19.60;98.10
22161;DHT22;49035;48.812;11.762;2023-10-08T14:52:18;19.60;98.60
22161;DHT22;49035;48.812;11.762;2023-10-08T14:54:44;19.80;98.70
22161;DHT22;49035;48.812;11.762;2023-10-08T14:57:11;19.70;98.00
22161;DHT22;49035;48.812;11.762;2023-10-08T14:59:40;19.70;98.50
22161;DHT22;49035;48.812;11.762;2023-10-08T15:02:07;19.60;98.50
22161;DHT22;49035;48.812;11.762;2023-10-08T15:04:33;19.70;98.60
22161;DHT22;49035;48.812;11.762;2023-10-08T15:07:01;19.60;99.30
22161;DHT22;49035;48.812;11.762;2023-10-08T15:09:27;19.60;98.70
22161;DHT22;49035;48.812;11.762;2023-10-08T15:11:53;19.50;99.70
22161;DHT22;49035;48.812;11.762;2023-10-08T15:14:20;19.50;99.10
22161;DHT22;49035;48.812;11.762;2023-10-08T15:16:46;19.50;99.50
22161;DHT22;49035;48.812;11.762;2023-10-08T15:19:21;19.60;99.10
22161;DHT22;49035;48.812;11.762;2023-10-08T15:21:47;19.50;99.90
22161;DHT22;49035;48.812;11.762;2023-10-08T15:24:19;19.40;99.90
22161;DHT22;49035;48.812;11.762;2023-10-08T15:26:51;19.40;99.90
22161;DHT22;49035;48.812;11.762;2023-10-08T15:29:24;19.30;99.90
22161;DHT22;49035;48.812;11.762;2023-10-08T15:31:53;19.30;99.90
22161;DHT22;49035;48.812;11.762;2023-10-08T15:34:23;19.20;99.90
22161;DHT22;49035;48.812;11.762;2023-10-08T15:36:55;19.10;99.90
22161;DHT22;49035;48.812;11.762;2023-10-08T15:39:22;19.10;99.90
22161;DHT22;49035;48.812;11.762;2023-10-08T15:41:52;19.10;99.90
22161;DHT22;49035;48.812;11.762;2023-10-08T15:44:18;19.00;99.90
22161;DHT22;49035;48.812;11.762;2023-10-08T15:46:47;19.00;99.90
22161;DHT22;49035;48.812;11.762;2023-10-08T15:49:13;19.00;99.90
22161;DHT22;49035;48.812;11.762;2023-10-08T15:51:39;18.90;99.90
22161;DHT22;49035;48.812;11.762;2023-10-08T15:54:05;18.70;99.90
22161;DHT22;49035;48.812;11.762;2023-10-08T15:56:32;18.60;99.90
22161;DHT22;49035;48.812;11.762;2023-10-08T15:58:57;18.60;99.90
22161;DHT22;49035;48.812;11.762;2023-10-08T16:01:23;18.50;99.90
22161;DHT22;49035;48.812;11.762;2023-10-08T16:03:51;18.40;99.90
22161;DHT22;49035;48.812;11.762;2023-10-08T16:06:17;18.30;99.90
22161;DHT22;49035;48.812;11.762;2023-10-08T16:08:46;18.20;99.90
22161;DHT22;49035;48.812;11.762;2023-10-08T16:11:13;18.00;99.90
22161;DHT22;49035;48.812;11.762;2023-10-08T16:13:42;17.80;99.90
22161;DHT22;49035;48.812;11.762;2023-10-08T16:16:11;17.60;99.90
22161;DHT22;49035;48.812;11.762;2023-10-08T16:18:37;17.40;99.90
22161;DHT22;49035;48.812;11.762;2023-10-08T16:21:06;17.20;99.90
22161;DHT22;49035;48.812;11.762;2023-10-08T16:23:35;17.10;99.90
22161;DHT22;49035;48.812;11.762;2023-10-08T16:26:02;17.00;99.90
22161;DHT22;49035;48.812;11.762;2023-10-08T16:28:27;16.90;99.90
22161;DHT22;49035;48.812;11.762;2023-10-08T16:30:54;16.70;99.90
22161;DHT22;49035;48.812;11.762;2023-10-08T16:33:21;16.50;99.90
22161;DHT22;49035;48.812;11.762;2023-10-08T16:35:49;16.30;99.90
22161;DHT22;49035;48.812;11.762;2023-10-08T16:38:17;16.20;99.90
22161;DHT22;49035;48.812;11.762;2023-10-08T16:40:43;16.30;99.90
22161;DHT22;49035;48.812;11.762;2023-10-08T16:43:09;16.20;99.90
22161;DHT22;49035;48.812;11.762;2023-10-08T16:45:37;16.00;99.90
22161;DHT22;49035;48.812;11.762;2023-10-08T16:48:05;15.80;99.90
22161;DHT22;49035;48.812;11.762;2023-10-08T16:50:30;15.70;99.90
22161;DHT22;49035;48.812;11.762;2023-10-08T16:52:57;15.50;99.90
22161;DHT22;49035;48.812;11.762;2023-10-08T16:55:23;15.30;99.90
22161;DHT22;49035;48.812;11.762;2023-10-08T16:57:50;15.10;99.90
22161;DHT22;49035;48.812;11.762;2023-10-08T17:00:16;15.00;99.90
22161;DHT22;49035;48.812;11.762;2023-10-08T17:02:41;14.90;99.90
22161;DHT22;49035;48.812;11.762;2023-10-08T17:05:08;14.70;99.90
22161;DHT22;49035;48.812;11.762;2023-10-08T17:07:34;14.50;99.90
22161;DHT22;49035;48.812;11.762;2023-10-08T17:09:59;14.30;99.90
22161;DHT22;49035;48.812;11.762;2023-10-08T17:12:25;14.10;99.90
22161;DHT22;49035;48.812;11.762;2023-10-08T17:14:51;13.90;99.90
22161;DHT22;49035;48.812;11.762;2023-10-08T17:17:16;13.90;99.90
22161;DHT22;49035;48.812;11.762;2023-10-08T17:19:42;13.80;99.90
22161;DHT22;49035;48.812;11.762;2023-10-08T17:22:08;13.80;99.90
22161;DHT22;49035;48.812;11.762;2023-10-08T17:24:34;13.70;99.90
22161;DHT22;49035;48.812;11.762;2023-10-08T17:26:59;13.60;99.90
22161;DHT22;49035;48.812;11.762;2023-10-08T17:29:25;13.50;99.90
22161;DHT22;49035;48.812;11.762;2023-10-08T17:31:51;13.50;99.90
22161;DHT22;49035;48.812;11.762;2023-10-08T17:34:17;13.40;99.90
22161;DHT22;49035;48.812;11.762;2023-10-08T17:36:43;13.30;99.90
22161;DHT22;49035;48.812;11.762;2023-10-08T17:39:10;13.20;99.90
22161;DHT22;49035;48.812;11.762;2023-10-08T17:41:45;13.10;99.90
22161;DHT22;49035;48.812;11.762;2023-10-08T17:44:11;13.00;99.90
22161;DHT22;49035;48.812;11.762;2023-10-08T17:46:38;12.80;99.90
22161;DHT22;49035;48.812;11.762;2023-10-08T17:49:04;12.80;99.90
22161;DHT22;49035;48.812;11.762;2023-10-08T17:51:31;12.70;99.90
22161;DHT22;49035;48.812;11.762;2023-10-08T17:54:03;12.60;99.90
22161;DHT22;49035;48.812;11.762;2023-10-08T17:56:44;12.40;99.90
22161;DHT22;49035;48.812;11.762;2023-10-08T17:59:09;12.50;99.90
22161;DHT22;49035;48.812;11.762;2023-10-08T18:01:38;12.90;99.90
22161;DHT22;49035;48.812;11.762;2023-10-08T18:04:05;12.90;99.90
22161;DHT22;49035;48.812;11.762;2023-10-08T18:06:36;13.10;99.90
22161;DHT22;49035;48.812;11.762;2023-10-08T18:09:02;13.00;99.90
22161;DHT22;49035;48.812;11.762;2023-10-08T18:11:35;13.10;99.90
22161;DHT22;49035;48.812;11.762;2023-10-08T18:14:10;13.40;99.90
22161;DHT22;49035;48.812;11.762;2023-10-08T18:16:40;13.50;99.90
22161;DHT22;49035;48.812;11.762;2023-10-08T18:19:07;13.40;99.90
22161;DHT22;49035;48.812;11.762;2023-10-08T18:21:33;13.50;99.90
22161;DHT22;49035;48.812;11.762;2023-10-08T18:24:04;13.60;99.90
22161;DHT22;49035;48.812;11.762;2023-10-08T18:26:30;13.60;99.90
22161;DHT22;49035;48.812;11.762;2023-10-08T18:28:56;13.60;99.90
22161;DHT22;49035;48.812;11.762;2023-10-08T18:31:22;13.60;99.90
22161;DHT22;49035;48.812;11.762;2023-10-08T18:33:48;13.40;99.90
22161;DHT22;49035;48.812;11.762;2023-10-08T18:36:15;13.30;99.90
22161;DHT22;49035;48.812;11.762;2023-10-08T18:38:42;13.00;99.90
22161;DHT22;49035;48.812;11.762;2023-10-08T18:41:08;12.90;99.90
22161;DHT22;49035;48.812;11.762;2023-10-08T18:43:37;12.80;99.90
22161;DHT22;49035;48.812;11.762;2023-10-08T18:46:04;12.80;99.90
22161;DHT22;49035;48.812;11.762;2023-10-08T18:48:37;12.80;99.90
22161;DHT22;49035;48.812;11.762;2023-10-08T18:51:07;12.70;99.90
22161;DHT22;49035;48.812;11.762;2023-10-08T18:53:34;12.60;99.90
22161;DHT22;49035;48.812;11.762;2023-10-08T18:56:07;12.50;99.90
22161;DHT22;49035;48.812;11.762;2023-10-08T18:58:38;12.50;99.90
22161;DHT22;49035;48.812;11.762;2023-10-08T19:01:04;12.50;99.90
22161;DHT22;49035;48.812;11.762;2023-10-08T19:03:33;12.50;99.90
22161;DHT22;49035;48.812;11.762;2023-10-08T19:05:59;12.50;99.90
22161;DHT22;49035;48.812;11.762;2023-10-08T19:08:25;12.70;99.90
22161;DHT22;49035;48.812;11.762;2023-10-08T19:10:51;12.80;99.90
22161;DHT22;49035;48.812;11.762;2023-10-08T19:13:18;12.80;99.90